sensor_id;sensor_type;location;lat;lon;timestamp;pressure;altitude;pressure_sealevel;temperature;humidity
26865;BME280;40618;51.166;10.322;2023-01-16T00:01:19;95903.09;;;2.63;82.24
26865;BME280;40618;51.166;10.322;2023-01-16T00:03:45;95911.63;;;2.64;82.45
26865;BME280;40618;51.166;10.322;2023-01-16T00:06:11;95905.66;;;2.63;82.90
26865;BME280;40618;51.166;10.322;2023-01-16T00:08:36;95909.03;;;2.65;82.00
26865;BME280;40618;51.166;10.322;2023-01-16T00:11:02;95903.94;;;2.64;82.00
26865;BME280;40618;51.166;10.322;2023-01-16T00:13:28;95914.16;;;2.64;82.43
26865;BME280;40618;51.166;10.322;2023-01-16T00:15:53;95899.66;;;2.64;82.53
26865;BME280;40618;51.166;10.322;2023-01-16T00:18:19;95901.41;;;2.62;82.15
26865;BME280;40618;51.166;10.322;2023-01-16T00:20:46;95904.06;;;2.58;82.26
26865;BME280;40618;51.166;10.322;2023-01-16T00:23:13;95889.66;;;2.55;82.55
26865;BME280;40618;51.166;10.322;2023-01-16T00:25:40;95891.44;;;2.51;82.58
26865;BME280;40618;51.166;10.322;2023-01-16T00:28:08;95883.75;;;2.51;82.39
26865;BME280;40618;51.166;10.322;2023-01-16T00:30:34;95875.31;;;2.49;82.31
26865;BME280;40618;51.166;10.322;2023-01-16T00:33:00;95872.78;;;2.48;82.54
26865;BME280;40618;51.166;10.322;2023-01-16T00:35:27;95871.94;;;2.47;82.70
26865;BME280;40618;51.166;10.322;2023-01-16T00:37:52;95876.22;;;2.47;82.36
26865;BME280;40618;51.166;10.322;2023-01-16T00:40:19;95878.81;;;2.45;82.97
26865;BME280;40618;51.166;10.322;2023-01-16T00:42:45;95882.19;;;2.46;82.45
26865;BME280;40618;51.166;10.322;2023-01-16T00:45:11;95878.78;;;2.47;82.88
26865;BME280;40618;51.166;10.322;2023-01-16T00:47:36;95871.09;;;2.47;82.50
26865;BME280;40618;51.166;10.322;2023-01-16T00:50:02;95869.38;;;2.47;82.46
26865;BME280;40618;51.166;10.322;2023-01-16T00:52:29;95858.34;;;2.47;82.39
26865;BME280;40618;51.166;10.322;2023-01-16T00:54:54;95861.72;;;2.47;82.65
26865;BME280;40618;51.166;10.322;2023-01-16T00:57:20;95862.53;;;2.49;83.05
26865;BME280;40618;51.166;10.322;2023-01-16T00:59:45;95849.75;;;2.49;82.19
26865;BME280;40618;51.166;10.322;2023-01-16T01:02:11;95848.03;;;2.50;82.35
26865;BME280;40618;51.166;10.322;2023-01-16T01:04:37;95851.44;;;2.50;82.92
26865;BME280;40618;51.166;10.322;2023-01-16T01:07:02;95852.28;;;2.51;82.64
26865;BME280;40618;51.166;10.322;2023-01-16T01:09:28;95853.97;;;2.52;82.76
26865;BME280;40618;51.166;10.322;2023-01-16T01:11:56;95850.53;;;2.53;82.97
26865;BME280;40618;51.166;10.322;2023-01-16T01:14:23;95843.75;;;2.52;82.61
26865;BME280;40618;51.166;10.322;2023-01-16T01:16:49;95835.22;;;2.53;82.63
26865;BME280;40618;51.166;10.322;2023-01-16T01:19:15;95839.38;;;2.56;82.42
26865;BME280;40618;51.166;10.322;2023-01-16T01:21:40;95828.31;;;2.55;82.45
26865;BME280;40618;51.166;10.322;2023-01-16T01:24:06;95832.56;;;2.56;82.23
26865;BME280;40618;51.166;10.322;2023-01-16T01:26:32;95811.28;;;2.56;82.31
26865;BME280;40618;51.166;10.322;2023-01-16T01:28:57;95821.50;;;2.56;83.02
26865;BME280;40618;51.166;10.322;2023-01-16T01:31:23;95806.16;;;2.56;82.31
26865;BME280;40618;51.166;10.322;2023-01-16T01:33:49;95800.19;;;2.57;82.98
26865;BME280;40618;51.166;10.322;2023-01-16T01:36:14;95796.75;;;2.58;83.01
26865;BME280;40618;51.166;10.322;2023-01-16T01:38:40;95797.53;;;2.60;82.33
26865;BME280;40618;51.166;10.322;2023-01-16T01:41:06;95784.75;;;2.60;82.92
26865;BME280;40618;51.166;10.322;2023-01-16T01:46:07;95793.28;;;2.60;82.54
26865;BME280;40618;51.166;10.322;2023-01-16T01:48:40;95790.69;;;2.62;82.57
26865;BME280;40618;51.166;10.322;2023-01-16T01:51:26;95765.19;;;2.60;83.10
26865;BME280;40618;51.166;10.322;2023-01-16T01:54:03;95770.28;;;2.60;82.50
26865;BME280;40618;51.166;10.322;2023-01-16T01:56:47;95756.66;;;2.60;82.40
26865;BME280;40618;51.166;10.322;2023-01-16T01:59:30;95753.22;;;2.61;82.28
26865;BME280;40618;51.166;10.322;2023-01-16T02:01:59;95752.34;;;2.62;82.89
26865;BME280;40618;51.166;10.322;2023-01-16T02:04:30;95751.47;;;2.63;83.02
26865;BME280;40618;51.166;10.322;2023-01-16T02:07:01;95737.84;;;2.64;82.37
26865;BME280;40618;51.166;10.322;2023-01-16T02:09:31;95731.00;;;2.64;82.89
26865;BME280;40618;51.166;10.322;2023-01-16T02:12:00;95725.88;;;2.64;83.05
26865;BME280;40618;51.166;10.322;2023-01-16T02:14:33;95714.78;;;2.65;82.97
26865;BME280;40618;51.166;10.322;2023-01-16T02:17:12;95704.56;;;2.65;82.45
26865;BME280;40618;51.166;10.322;2023-01-16T02:20:18;95704.47;;;2.68;82.32
26865;BME280;40618;51.166;10.322;2023-01-16T02:26:45;95695.22;;;2.64;82.89
26865;BME280;40618;51.166;10.322;2023-01-16T02:41:00;95671.75;;;2.50;82.76
26865;BME280;40618;51.166;10.322;2023-01-16T02:46:47;95665.03;;;2.46;82.35
26865;BME280;40618;51.166;10.322;2023-01-16T02:49:38;95658.34;;;2.42;82.48
26865;BME280;40618;51.166;10.322;2023-01-16T02:52:16;95662.63;;;2.41;82.40
26865;BME280;40618;51.166;10.322;2023-01-16T02:54:56;95659.25;;;2.39;82.65
26865;BME280;40618;51.166;10.322;2023-01-16T02:57:40;95655.97;;;2.35;82.23
26865;BME280;40618;51.166;10.322;2023-01-16T03:00:12;95649.16;;;2.34;83.32
26865;BME280;40618;51.166;10.322;2023-01-16T03:02:42;95640.72;;;2.32;82.89
26865;BME280;40618;51.166;10.322;2023-01-16T03:05:09;95634.81;;;2.30;82.46
26865;BME280;40618;51.166;10.322;2023-01-16T03:18:41;95611.09;;;2.25;82.73
26865;BME280;40618;51.166;10.322;2023-01-16T03:23:54;95600.94;;;2.24;83.17
26865;BME280;40618;51.166;10.322;2023-01-16T03:26:41;95594.94;;;2.25;83.00
26865;BME280;40618;51.166;10.322;2023-01-16T03:29:16;95597.47;;;2.26;82.80
26865;BME280;40618;51.166;10.322;2023-01-16T03:31:54;95583.88;;;2.24;83.37
26865;BME280;40618;51.166;10.322;2023-01-16T03:34:30;95577.16;;;2.22;82.61
26865;BME280;40618;51.166;10.322;2023-01-16T03:37:11;95576.31;;;2.21;83.43
26865;BME280;40618;51.166;10.322;2023-01-16T03:40:00;95574.56;;;2.23;82.94
26865;BME280;40618;51.166;10.322;2023-01-16T03:42:39;95567.81;;;2.20;82.62
26865;BME280;40618;51.166;10.322;2023-01-16T03:45:21;95567.00;;;2.18;82.50
26865;BME280;40618;51.166;10.322;2023-01-16T03:48:01;95565.38;;;2.17;83.13
26865;BME280;40618;51.166;10.322;2023-01-16T03:50:32;95560.31;;;2.14;83.04
26865;BME280;40618;51.166;10.322;2023-01-16T03:53:05;95556.13;;;2.13;83.21
26865;BME280;40618;51.166;10.322;2023-01-16T03:55:54;95555.16;;;2.16;83.02
26865;BME280;40618;51.166;10.322;2023-01-16T03:58:31;95550.88;;;2.18;82.92
26865;BME280;40618;51.166;10.322;2023-01-16T04:03:58;95539.75;;;2.20;82.71
26865;BME280;40618;51.166;10.322;2023-01-16T04:06:37;95544.78;;;2.22;83.05
26865;BME280;40618;51.166;10.322;2023-01-16T04:09:14;95541.38;;;2.23;82.79
26865;BME280;40618;51.166;10.322;2023-01-16T04:11:49;95526.88;;;2.24;83.31
26865;BME280;40618;51.166;10.322;2023-01-16T04:14:18;95526.06;;;2.23;82.86
26865;BME280;40618;51.166;10.322;2023-01-16T04:16:47;95527.00;;;2.19;82.63
26865;BME280;40618;51.166;10.322;2023-01-16T04:19:14;95513.50;;;2.15;83.00
26865;BME280;40618;51.166;10.322;2023-01-16T04:21:45;95516.81;;;2.19;82.79
26865;BME280;40618;51.166;10.322;2023-01-16T04:24:12;95505.69;;;2.20;83.13
26865;BME280;40618;51.166;10.322;2023-01-16T04:26:39;95502.31;;;2.19;83.54
26865;BME280;40618;51.166;10.322;2023-01-16T04:29:05;95494.78;;;2.15;83.04
26865;BME280;40618;51.166;10.322;2023-01-16T04:31:30;95497.28;;;2.16;83.14
26865;BME280;40618;51.166;10.322;2023-01-16T04:33:56;95488.75;;;2.17;82.65
26865;BME280;40618;51.166;10.322;2023-01-16T04:36:22;95486.22;;;2.17;83.46
26865;BME280;40618;51.166;10.322;2023-01-16T04:38:48;95481.13;;;2.16;82.56
26865;BME280;40618;51.166;10.322;2023-01-16T04:41:14;95476.00;;;2.16;83.30
26865;BME280;40618;51.166;10.322;2023-01-16T04:44:01;95474.31;;;2.16;82.63
26865;BME280;40618;51.166;10.322;2023-01-16T04:46:28;95470.84;;;2.19;82.61
26865;BME280;40618;51.166;10.322;2023-01-16T04:48:54;95461.50;;;2.18;83.20
26865;BME280;40618;51.166;10.322;2023-01-16T04:51:20;95462.31;;;2.18;83.25
26865;BME280;40618;51.166;10.322;2023-01-16T04:53:46;95459.78;;;2.18;83.44
26865;BME280;40618;51.166;10.322;2023-01-16T04:56:11;95455.69;;;2.13;82.66
26865;BME280;40618;51.166;10.322;2023-01-16T04:58:37;95449.03;;;2.07;82.89
26865;BME280;40618;51.166;10.322;2023-01-16T05:01:02;95450.84;;;2.03;83.41
26865;BME280;40618;51.166;10.322;2023-01-16T05:03:28;95444.94;;;2.01;83.31
26865;BME280;40618;51.166;10.322;2023-01-16T05:05:54;95446.63;;;2.02;82.72
26865;BME280;40618;51.166;10.322;2023-01-16T05:08:19;95440.66;;;2.02;83.43
26865;BME280;40618;51.166;10.322;2023-01-16T05:10:45;95432.13;;;2.03;83.36
26865;BME280;40618;51.166;10.322;2023-01-16T05:13:11;95435.53;;;2.03;83.46
26865;BME280;40618;51.166;10.322;2023-01-16T05:15:37;95427.00;;;2.05;83.04
26865;BME280;40618;51.166;10.322;2023-01-16T05:18:03;95425.28;;;2.05;83.62
26865;BME280;40618;51.166;10.322;2023-01-16T05:20:28;95423.59;;;2.04;83.73
26865;BME280;40618;51.166;10.322;2023-01-16T05:22:54;95422.81;;;2.02;83.38
26865;BME280;40618;51.166;10.322;2023-01-16T05:25:19;95423.78;;;1.98;82.86
26865;BME280;40618;51.166;10.322;2023-01-16T05:27:49;95409.31;;;1.98;83.03
26865;BME280;40618;51.166;10.322;2023-01-16T05:30:15;95397.38;;;1.99;83.69
26865;BME280;40618;51.166;10.322;2023-01-16T05:32:43;95396.53;;;1.98;83.49
26865;BME280;40618;51.166;10.322;2023-01-16T05:35:09;95389.88;;;1.93;83.54
26865;BME280;40618;51.166;10.322;2023-01-16T05:37:35;95393.34;;;1.92;83.38
26865;BME280;40618;51.166;10.322;2023-01-16T05:40:01;95388.28;;;1.90;82.71
26865;BME280;40618;51.166;10.322;2023-01-16T05:42:27;95377.31;;;1.86;82.94
26865;BME280;40618;51.166;10.322;2023-01-16T05:44:53;95376.50;;;1.84;83.07
26865;BME280;40618;51.166;10.322;2023-01-16T05:47:19;95368.84;;;1.84;83.40
26865;BME280;40618;51.166;10.322;2023-01-16T05:49:46;95372.22;;;1.86;83.37
26865;BME280;40618;51.166;10.322;2023-01-16T05:52:12;95365.44;;;1.85;83.40
26865;BME280;40618;51.166;10.322;2023-01-16T05:54:38;95356.09;;;1.84;82.98
26865;BME280;40618;51.166;10.322;2023-01-16T05:57:04;95344.97;;;1.87;83.81
26865;BME280;40618;51.166;10.322;2023-01-16T05:59:30;95344.03;;;1.90;83.26
26865;BME280;40618;51.166;10.322;2023-01-16T06:01:56;95332.97;;;1.91;83.15
26865;BME280;40618;51.166;10.322;2023-01-16T06:04:22;95339.84;;;1.87;83.33
26865;BME280;40618;51.166;10.322;2023-01-16T06:06:48;95335.59;;;1.88;83.49
26865;BME280;40618;51.166;10.322;2023-01-16T06:09:15;95329.59;;;1.89;83.79
26865;BME280;40618;51.166;10.322;2023-01-16T06:11:40;95327.03;;;1.89;83.84
26865;BME280;40618;51.166;10.322;2023-01-16T06:14:06;95321.13;;;1.88;83.68
26865;BME280;40618;51.166;10.322;2023-01-16T06:16:33;95320.28;;;1.88;83.69
26865;BME280;40618;51.166;10.322;2023-01-16T06:19:00;95319.38;;;1.90;83.20
26865;BME280;40618;51.166;10.322;2023-01-16T06:21:26;95315.03;;;1.92;83.00
26865;BME280;40618;51.166;10.322;2023-01-16T06:23:52;95318.41;;;1.93;83.77
26865;BME280;40618;51.166;10.322;2023-01-16T06:26:17;95307.38;;;1.92;83.02
26865;BME280;40618;51.166;10.322;2023-01-16T06:28:45;95306.47;;;1.95;83.78
26865;BME280;40618;51.166;10.322;2023-01-16T06:31:11;95305.63;;;1.94;83.23
26865;BME280;40618;51.166;10.322;2023-01-16T06:33:37;95297.06;;;1.95;83.38
26865;BME280;40618;51.166;10.322;2023-01-16T06:36:03;95292.81;;;1.96;83.52
26865;BME280;40618;51.166;10.322;2023-01-16T06:38:29;95297.97;;;1.94;82.86
26865;BME280;40618;51.166;10.322;2023-01-16T06:40:55;95284.34;;;1.94;82.76
26865;BME280;40618;51.166;10.322;2023-01-16T06:43:25;95285.22;;;1.94;82.89
26865;BME280;40618;51.166;10.322;2023-01-16T06:45:52;95283.53;;;1.93;82.78
26865;BME280;40618;51.166;10.322;2023-01-16T06:48:19;95276.66;;;1.95;83.72
26865;BME280;40618;51.166;10.322;2023-01-16T06:50:45;95269.78;;;1.97;82.77
26865;BME280;40618;51.166;10.322;2023-01-16T06:53:11;95272.41;;;1.96;83.04
26865;BME280;40618;51.166;10.322;2023-01-16T06:55:38;95261.34;;;1.95;83.54
26865;BME280;40618;51.166;10.322;2023-01-16T06:58:05;95257.09;;;1.96;83.01
26865;BME280;40618;51.166;10.322;2023-01-16T07:00:31;95261.28;;;1.97;82.89
26865;BME280;40618;51.166;10.322;2023-01-16T07:02:57;95252.84;;;1.95;82.85
26865;BME280;40618;51.166;10.322;2023-01-16T07:05:24;95246.06;;;1.94;83.81
26865;BME280;40618;51.166;10.322;2023-01-16T07:07:51;95245.31;;;1.92;83.48
26865;BME280;40618;51.166;10.322;2023-01-16T07:10:17;95243.63;;;1.91;82.75
26865;BME280;40618;51.166;10.322;2023-01-16T07:12:48;95236.03;;;1.89;82.93
26865;BME280;40618;51.166;10.322;2023-01-16T07:15:18;95225.00;;;1.87;82.96
26865;BME280;40618;51.166;10.322;2023-01-16T07:18:02;95213.97;;;1.86;82.76
26865;BME280;40618;51.166;10.322;2023-01-16T07:20:54;95218.22;;;1.88;83.54
26865;BME280;40618;51.166;10.322;2023-01-16T07:23:44;95209.69;;;1.87;83.51
26865;BME280;40618;51.166;10.322;2023-01-16T07:26:16;95210.50;;;1.89;83.58
26865;BME280;40618;51.166;10.322;2023-01-16T07:28:45;95197.06;;;1.84;83.18
26865;BME280;40618;51.166;10.322;2023-01-16T07:31:12;95192.88;;;1.81;82.82
26865;BME280;40618;51.166;10.322;2023-01-16T07:33:38;95186.03;;;1.83;83.67
26865;BME280;40618;51.166;10.322;2023-01-16T07:36:04;95191.00;;;1.86;83.70
26865;BME280;40618;51.166;10.322;2023-01-16T07:38:30;95180.81;;;1.86;82.72
26865;BME280;40618;51.166;10.322;2023-01-16T07:40:56;95174.88;;;1.86;82.83
26865;BME280;40618;51.166;10.322;2023-01-16T07:43:21;95168.94;;;1.85;83.58
26865;BME280;40618;51.166;10.322;2023-01-16T07:45:47;95166.44;;;1.84;83.18
26865;BME280;40618;51.166;10.322;2023-01-16T07:48:21;95155.34;;;1.85;82.76
26865;BME280;40618;51.166;10.322;2023-01-16T07:50:52;95156.97;;;1.88;83.21
26865;BME280;40618;51.166;10.322;2023-01-16T07:53:21;95162.84;;;1.90;83.50
26865;BME280;40618;51.166;10.322;2023-01-16T07:55:53;95150.06;;;1.90;83.48
26865;BME280;40618;51.166;10.322;2023-01-16T07:58:21;95152.63;;;1.90;82.98
26865;BME280;40618;51.166;10.322;2023-01-16T08:00:47;95148.31;;;1.92;82.95
26865;BME280;40618;51.166;10.322;2023-01-16T08:03:14;95138.06;;;1.93;83.19
26865;BME280;40618;51.166;10.322;2023-01-16T08:05:40;95142.28;;;1.94;82.63
26865;BME280;40618;51.166;10.322;2023-01-16T08:08:09;95133.72;;;1.95;83.46
26865;BME280;40618;51.166;10.322;2023-01-16T08:10:35;95135.41;;;1.96;83.57
26865;BME280;40618;51.166;10.322;2023-01-16T08:13:01;95138.75;;;1.98;83.51
26865;BME280;40618;51.166;10.322;2023-01-16T08:15:27;95132.72;;;1.99;83.33
26865;BME280;40618;51.166;10.322;2023-01-16T08:17:52;95130.19;;;1.99;83.25
26865;BME280;40618;51.166;10.322;2023-01-16T08:20:18;95125.06;;;1.99;83.54
26865;BME280;40618;51.166;10.322;2023-01-16T08:22:45;95117.38;;;2.01;82.75
26865;BME280;40618;51.166;10.322;2023-01-16T08:25:13;95110.56;;;2.01;83.23
26865;BME280;40618;51.166;10.322;2023-01-16T08:27:40;95114.78;;;2.02;83.02
26865;BME280;40618;51.166;10.322;2023-01-16T08:30:07;95110.56;;;2.01;82.85
26865;BME280;40618;51.166;10.322;2023-01-16T08:32:34;95110.50;;;2.03;83.39
26865;BME280;40618;51.166;10.322;2023-01-16T08:35:00;95113.84;;;2.05;83.00
26865;BME280;40618;51.166;10.322;2023-01-16T08:37:29;95104.47;;;2.06;82.86
26865;BME280;40618;51.166;10.322;2023-01-16T08:39:55;95097.56;;;2.08;82.72
26865;BME280;40618;51.166;10.322;2023-01-16T08:42:20;95099.19;;;2.10;83.37
26865;BME280;40618;51.166;10.322;2023-01-16T08:45:25;95088.91;;;2.12;83.06
26865;BME280;40618;51.166;10.322;2023-01-16T08:48:10;95087.16;;;2.14;82.78
26865;BME280;40618;51.166;10.322;2023-01-16T08:50:56;95081.13;;;2.16;82.68
26865;BME280;40618;51.166;10.322;2023-01-16T08:53:40;95079.31;;;2.18;82.57
26865;BME280;40618;51.166;10.322;2023-01-16T08:56:06;95080.13;;;2.20;82.51
26865;BME280;40618;51.166;10.322;2023-01-16T08:58:32;95073.13;;;2.26;83.29
26865;BME280;40618;51.166;10.322;2023-01-16T09:00:58;95053.41;;;2.29;82.66
26865;BME280;40618;51.166;10.322;2023-01-16T09:03:24;95050.78;;;2.32;82.72
26865;BME280;40618;51.166;10.322;2023-01-16T09:05:49;95049.84;;;2.33;83.03
26865;BME280;40618;51.166;10.322;2023-01-16T09:08:15;95037.00;;;2.36;83.12
26865;BME280;40618;51.166;10.322;2023-01-16T09:10:40;95034.31;;;2.40;83.26
26865;BME280;40618;51.166;10.322;2023-01-16T09:13:26;95030.03;;;2.40;82.69
26865;BME280;40618;51.166;10.322;2023-01-16T09:16:10;95031.66;;;2.43;82.79
26865;BME280;40618;51.166;10.322;2023-01-16T09:18:36;95017.94;;;2.45;82.67
26865;BME280;40618;51.166;10.322;2023-01-16T09:21:02;95018.75;;;2.46;82.71
26865;BME280;40618;51.166;10.322;2023-01-16T09:23:27;95017.00;;;2.48;82.71
26865;BME280;40618;51.166;10.322;2023-01-16T09:25:53;95016.13;;;2.49;82.37
26865;BME280;40618;51.166;10.322;2023-01-16T09:28:18;95011.75;;;2.51;82.79
26865;BME280;40618;51.166;10.322;2023-01-16T09:30:44;95020.16;;;2.54;82.59
26865;BME280;40618;51.166;10.322;2023-01-16T09:33:10;95009.94;;;2.54;82.27
26865;BME280;40618;51.166;10.322;2023-01-16T09:35:35;95006.47;;;2.56;82.47
26865;BME280;40618;51.166;10.322;2023-01-16T09:38:01;95003.03;;;2.57;82.65
26865;BME280;40618;51.166;10.322;2023-01-16T09:40:26;94989.38;;;2.58;82.57
26865;BME280;40618;51.166;10.322;2023-01-16T09:46:22;94980.75;;;2.60;82.08
26865;BME280;40618;51.166;10.322;2023-01-16T09:51:41;94956.03;;;2.61;82.35
26865;BME280;40618;51.166;10.322;2023-01-16T09:54:34;94956.75;;;2.64;81.47
26865;BME280;40618;51.166;10.322;2023-01-16T09:57:26;94950.75;;;2.65;82.15
26865;BME280;40618;51.166;10.322;2023-01-16T10:00:15;94932.81;;;2.67;81.63
26865;BME280;40618;51.166;10.322;2023-01-16T10:02:43;94922.53;;;2.68;81.37
26865;BME280;40618;51.166;10.322;2023-01-16T10:05:10;94918.16;;;2.70;82.16
26865;BME280;40618;51.166;10.322;2023-01-16T10:13:14;94893.94;;;2.81;81.31
26865;BME280;40618;51.166;10.322;2023-01-16T10:16:09;94892.13;;;2.83;81.46
26865;BME280;40618;51.166;10.322;2023-01-16T10:24:00;94871.44;;;2.89;81.19
26865;BME280;40618;51.166;10.322;2023-01-16T10:27:13;94864.50;;;2.93;81.59
26865;BME280;40618;51.166;10.322;2023-01-16T10:32:49;94849.72;;;2.99;81.13
26865;BME280;40618;51.166;10.322;2023-01-16T10:35:25;94847.91;;;3.01;81.41
26865;BME280;40618;51.166;10.322;2023-01-16T10:38:02;94836.81;;;3.02;80.90
26865;BME280;40618;51.166;10.322;2023-01-16T10:40:42;94835.00;;;3.04;81.05
26865;BME280;40618;51.166;10.322;2023-01-16T10:43:14;94823.88;;;3.05;81.18
26865;BME280;40618;51.166;10.322;2023-01-16T10:46:18;94811.88;;;3.08;81.50
26865;BME280;40618;51.166;10.322;2023-01-16T10:49:03;94797.16;;;3.13;81.24
26865;BME280;40618;51.166;10.322;2023-01-16T10:51:48;94788.38;;;3.18;80.94
26865;BME280;40618;51.166;10.322;2023-01-16T10:54:15;94782.94;;;3.26;80.83
26865;BME280;40618;51.166;10.322;2023-01-16T10:56:40;94778.38;;;3.33;81.15
26865;BME280;40618;51.166;10.322;2023-01-16T10:59:11;94773.03;;;3.37;80.59
26865;BME280;40618;51.166;10.322;2023-01-16T11:01:40;94760.22;;;3.39;81.25
26865;BME280;40618;51.166;10.322;2023-01-16T11:04:10;94756.63;;;3.43;81.15
26865;BME280;40618;51.166;10.322;2023-01-16T11:06:37;94743.59;;;3.48;80.70
26865;BME280;40618;51.166;10.322;2023-01-16T11:11:40;94733.84;;;3.56;80.76
26865;BME280;40618;51.166;10.322;2023-01-16T11:14:32;94713.22;;;3.59;80.38
26865;BME280;40618;51.166;10.322;2023-01-16T11:17:33;94709.63;;;3.63;80.55
26865;BME280;40618;51.166;10.322;2023-01-16T11:20:25;94711.28;;;3.64;80.71
26865;BME280;40618;51.166;10.322;2023-01-16T11:22:58;94709.69;;;3.62;80.22
26865;BME280;40618;51.166;10.322;2023-01-16T11:25:45;94697.88;;;3.59;79.92
26865;BME280;40618;51.166;10.322;2023-01-16T11:28:18;94702.19;;;3.59;80.20
26865;BME280;40618;51.166;10.322;2023-01-16T11:30:46;94693.66;;;3.58;80.48
26865;BME280;40618;51.166;10.322;2023-01-16T11:33:19;94690.28;;;3.58;80.05
26865;BME280;40618;51.166;10.322;2023-01-16T11:35:58;94694.56;;;3.57;80.08
26865;BME280;40618;51.166;10.322;2023-01-16T11:38:31;94693.00;;;3.54;79.76
26865;BME280;40618;51.166;10.322;2023-01-16T11:41:00;94690.56;;;3.51;79.86
26865;BME280;40618;51.166;10.322;2023-01-16T11:43:34;94694.09;;;3.49;79.47
26865;BME280;40618;51.166;10.322;2023-01-16T11:49:23;94681.59;;;3.43;79.53
26865;BME280;40618;51.166;10.322;2023-01-16T11:51:53;94669.69;;;3.42;79.39
26865;BME280;40618;51.166;10.322;2023-01-16T11:54:25;94669.91;;;3.37;79.81
26865;BME280;40618;51.166;10.322;2023-01-16T11:57:02;94676.00;;;3.34;79.31
26865;BME280;40618;51.166;10.322;2023-01-16T12:11:13;94637.00;;;3.29;79.21
26865;BME280;40618;51.166;10.322;2023-01-16T12:14:01;94631.16;;;3.27;79.47
26865;BME280;40618;51.166;10.322;2023-01-16T12:20:04;94616.22;;;3.18;79.19
26865;BME280;40618;51.166;10.322;2023-01-16T12:23:16;94618.25;;;3.11;78.73
26865;BME280;40618;51.166;10.322;2023-01-16T12:28:55;94611.63;;;2.88;79.28
26865;BME280;40618;51.166;10.322;2023-01-16T12:34:57;94588.06;;;2.62;79.39
26865;BME280;40618;51.166;10.322;2023-01-16T12:38:02;94584.06;;;2.57;79.87
26865;BME280;40618;51.166;10.322;2023-01-16T12:40:54;94576.78;;;2.49;79.32
26865;BME280;40618;51.166;10.322;2023-01-16T12:44:32;94572.06;;;2.40;79.55
26865;BME280;40618;51.166;10.322;2023-01-16T12:55:44;94565.41;;;2.16;79.73
26865;BME280;40618;51.166;10.322;2023-01-16T12:58:25;94554.72;;;2.08;80.43
26865;BME280;40618;51.166;10.322;2023-01-16T13:01:13;94549.78;;;2.03;80.64
26865;BME280;40618;51.166;10.322;2023-01-16T13:04:18;94542.47;;;1.96;80.68
26865;BME280;40618;51.166;10.322;2023-01-16T13:06:50;94542.72;;;1.90;80.02
26865;BME280;40618;51.166;10.322;2023-01-16T13:15:12;94527.88;;;1.79;80.49
26865;BME280;40618;51.166;10.322;2023-01-16T13:18:04;94530.31;;;1.82;81.28
26865;BME280;40618;51.166;10.322;2023-01-16T13:20:36;94535.34;;;1.83;81.44
26865;BME280;40618;51.166;10.322;2023-01-16T13:23:14;94530.19;;;1.85;81.32
26865;BME280;40618;51.166;10.322;2023-01-16T13:25:44;94528.59;;;1.82;81.19
26865;BME280;40618;51.166;10.322;2023-01-16T13:28:27;94518.44;;;1.81;80.99
26865;BME280;40618;51.166;10.322;2023-01-16T13:30:59;94509.84;;;1.83;81.17
26865;BME280;40618;51.166;10.322;2023-01-16T13:33:32;94524.19;;;1.86;81.78
26865;BME280;40618;51.166;10.322;2023-01-16T13:41:43;94498.78;;;1.83;80.86
26865;BME280;40618;51.166;10.322;2023-01-16T13:44:17;94489.34;;;1.85;81.64
26865;BME280;40618;51.166;10.322;2023-01-16T13:47:08;94480.75;;;1.88;81.21
26865;BME280;40618;51.166;10.322;2023-01-16T13:49:38;94483.16;;;1.91;81.87
26865;BME280;40618;51.166;10.322;2023-01-16T13:52:16;94477.16;;;1.92;81.13
26865;BME280;40618;51.166;10.322;2023-01-16T13:54:47;94474.53;;;1.93;81.02
26865;BME280;40618;51.166;10.322;2023-01-16T13:57:19;94459.16;;;1.95;81.98
26865;BME280;40618;51.166;10.322;2023-01-16T14:00:07;94464.19;;;1.96;81.57
26865;BME280;40618;51.166;10.322;2023-01-16T14:13:31;94447.28;;;1.94;81.85
26865;BME280;40618;51.166;10.322;2023-01-16T14:21:44;94425.66;;;2.02;81.18
26865;BME280;40618;51.166;10.322;2023-01-16T14:24:47;94411.16;;;2.03;81.60
26865;BME280;40618;51.166;10.322;2023-01-16T14:27:23;94404.28;;;2.05;81.81
26865;BME280;40618;51.166;10.322;2023-01-16T14:30:03;94399.09;;;2.07;81.89
26865;BME280;40618;51.166;10.322;2023-01-16T14:32:35;94393.84;;;2.10;81.50
26865;BME280;40618;51.166;10.322;2023-01-16T14:35:10;94398.78;;;2.13;81.88
26865;BME280;40618;51.166;10.322;2023-01-16T14:37:42;94388.38;;;2.17;81.41
26865;BME280;40618;51.166;10.322;2023-01-16T14:42:36;94388.38;;;2.17;81.47
26865;BME280;40618;51.166;10.322;2023-01-16T14:45:30;94374.63;;;2.20;81.25
26865;BME280;40618;51.166;10.322;2023-01-16T14:53:57;94367.75;;;2.22;81.49
26865;BME280;40618;51.166;10.322;2023-01-16T14:57:05;94358.16;;;2.27;81.80
26865;BME280;40618;51.166;10.322;2023-01-16T14:59:36;94352.28;;;2.25;80.93
26865;BME280;40618;51.166;10.322;2023-01-16T15:02:31;94348.06;;;2.24;81.47
26865;BME280;40618;51.166;10.322;2023-01-16T15:07:35;94346.13;;;2.29;81.32
26865;BME280;40618;51.166;10.322;2023-01-16T15:10:10;94332.47;;;2.30;80.64
26865;BME280;40618;51.166;10.322;2023-01-16T15:12:39;94334.94;;;2.32;81.74
26865;BME280;40618;51.166;10.322;2023-01-16T15:17:52;94304.28;;;2.32;81.50
26865;BME280;40618;51.166;10.322;2023-01-16T15:20:39;94305.25;;;2.29;80.47
26865;BME280;40618;51.166;10.322;2023-01-16T15:23:38;94283.25;;;2.27;81.24
26865;BME280;40618;51.166;10.322;2023-01-16T15:31:08;94271.19;;;2.30;81.02
26865;BME280;40618;51.166;10.322;2023-01-16T15:33:39;94275.47;;;2.30;80.66
26865;BME280;40618;51.166;10.322;2023-01-16T15:39:25;94257.53;;;2.31;80.40
26865;BME280;40618;51.166;10.322;2023-01-16T15:42:10;94240.53;;;2.30;80.56
26865;BME280;40618;51.166;10.322;2023-01-16T15:44:57;94241.44;;;2.29;80.41
26865;BME280;40618;51.166;10.322;2023-01-16T15:53:32;94231.38;;;2.26;81.03
26865;BME280;40618;51.166;10.322;2023-01-16T15:56:07;94227.16;;;2.25;80.68
26865;BME280;40618;51.166;10.322;2023-01-16T15:58:50;94209.31;;;2.25;80.71